Time;durP1;ratioP1;P1;durP2;ratioP2;P2;SDS_P1;SDS_P2;PMS_P1;PMS_P2;Temp;Humidity;BMP_temperature;BMP_pressure;BME280_temperature;BME280_humidity;BME280_pressure;Samples;Min_cycle;Max_cycle;Signal;HPM_P1;HPM_P2
2022/04/17 00:00:20;;;;;;;9.10;5.30;;;5.20;99.90;;;;;;4899690;29;20179;-87
2022/04/17 00:02:46;;;;;;;6.87;4.80;;;5.20;99.90;;;;;;4899481;29;20180;-88
2022/04/17 00:05:12;;;;;;;9.73;5.60;;;5.20;99.90;;;;;;4898576;29;20194;-88
2022/04/17 00:07:38;;;;;;;8.83;5.63;;;5.10;99.90;;;;;;4899647;29;20579;-87
2022/04/17 00:10:05;;;;;;;10.03;6.07;;;5.10;99.90;;;;;;4899859;29;20250;-87
2022/04/17 00:12:31;;;;;;;9.57;5.53;;;5.00;99.90;;;;;;4899481;29;20180;-86
2022/04/17 00:14:57;;;;;;;8.07;5.30;;;5.00;99.90;;;;;;4899716;29;20243;-87
2022/04/17 00:17:23;;;;;;;11.73;5.27;;;5.00;99.90;;;;;;4899353;29;20633;-88
2022/04/17 00:19:49;;;;;;;9.43;5.30;;;5.00;99.90;;;;;;4897859;29;20179;-87
2022/04/17 00:22:15;;;;;;;11.43;5.73;;;4.90;99.90;;;;;;4899684;29;20254;-87
2022/04/17 00:24:42;;;;;;;12.63;5.83;;;4.80;99.90;;;;;;4899596;29;20182;-86
2022/04/17 00:27:08;;;;;;;9.83;5.63;;;4.70;99.90;;;;;;4899582;29;20199;-87
2022/04/17 00:29:35;;;;;;;12.47;6.47;;;4.60;99.90;;;;;;4898281;29;20207;-87
2022/04/17 00:32:01;;;;;;;11.00;6.23;;;4.40;99.90;;;;;;4899142;29;20281;-87
2022/04/17 00:34:30;;;;;;;10.07;5.20;;;4.20;99.90;;;;;;4899480;29;20179;-88
2022/04/17 00:36:59;;;;;;;11.97;5.53;;;4.10;99.90;;;;;;4899729;29;20182;-88
2022/04/17 00:39:26;;;;;;;10.10;5.50;;;4.10;99.90;;;;;;4899479;29;20199;-87
2022/04/17 00:41:53;;;;;;;8.50;5.30;;;4.10;99.90;;;;;;4899401;29;20263;-87
2022/04/17 00:44:19;;;;;;;11.00;5.63;;;4.10;99.90;;;;;;4899607;29;20182;-88
2022/04/17 00:46:45;;;;;;;10.87;5.93;;;4.20;99.90;;;;;;4899365;29;20254;-87
2022/04/17 00:49:11;;;;;;;9.67;5.37;;;4.20;99.90;;;;;;4899644;29;20307;-87
2022/04/17 00:51:37;;;;;;;9.33;5.40;;;4.30;99.90;;;;;;4899536;29;20171;-88
2022/04/17 00:54:06;;;;;;;9.13;5.10;;;4.40;99.90;;;;;;4898921;29;20239;-87
2022/04/17 00:56:32;;;;;;;9.10;5.70;;;4.30;99.90;;;;;;4899298;29;20528;-86
2022/04/17 00:58:58;;;;;;;8.93;5.50;;;4.30;99.90;;;;;;4897927;29;20741;-85
2022/04/17 01:01:24;;;;;;;10.70;5.87;;;4.30;99.90;;;;;;4899178;29;20203;-86
2022/04/17 01:03:50;;;;;;;8.37;5.00;;;4.20;99.90;;;;;;4880368;29;20261;-86
2022/04/17 01:06:17;;;;;;;10.13;5.30;;;4.20;99.90;;;;;;4880720;29;20681;-86
2022/04/17 01:08:43;;;;;;;11.03;6.07;;;4.20;99.90;;;;;;4880513;29;20203;-86
2022/04/17 01:11:10;;;;;;;11.70;6.20;;;4.20;99.90;;;;;;4894759;29;20211;-86
2022/04/17 01:13:39;;;;;;;13.43;6.53;;;4.00;99.90;;;;;;4880502;29;20191;-86
2022/04/17 01:16:06;;;;;;;15.83;9.00;;;3.90;99.90;;;;;;4880373;29;20611;-86
2022/04/17 01:19:02;;;;;;;13.70;6.80;;;3.90;99.90;;;;;;4879990;29;20639;-86
2022/04/17 01:21:30;;;;;;;10.53;5.83;;;3.90;99.90;;;;;;4879261;29;20279;-87
2022/04/17 01:26:57;;;;;;;11.57;5.93;;;3.90;99.90;;;;;;4880863;29;20255;-86
2022/04/17 01:29:34;;;;;;;15.57;6.50;;;3.90;99.90;;;;;;4880338;29;20176;-87
2022/04/17 01:32:11;;;;;;;10.57;6.13;;;3.90;99.90;;;;;;4899520;29;20191;-86
2022/04/17 01:34:37;;;;;;;13.03;6.20;;;3.80;99.90;;;;;;4882726;29;20224;-88
2022/04/17 01:37:04;;;;;;;11.53;6.57;;;3.80;99.90;;;;;;4882848;29;20180;-88
2022/04/17 01:39:31;;;;;;;12.63;6.60;;;3.80;99.90;;;;;;4883637;29;20208;-88
2022/04/17 01:41:58;;;;;;;13.70;7.00;;;3.70;99.90;;;;;;4882525;29;20259;-88
2022/04/17 01:44:25;;;;;;;14.13;7.30;;;3.60;99.90;;;;;;4882515;29;20635;-88
2022/04/17 01:46:52;;;;;;;10.73;6.43;;;3.50;99.90;;;;;;4883230;29;20283;-88
2022/04/17 01:49:19;;;;;;;14.60;7.33;;;3.60;99.90;;;;;;4883664;29;20173;-88
2022/04/17 01:51:46;;;;;;;14.77;7.63;;;3.70;99.90;;;;;;4883537;29;20172;-88
2022/04/17 01:54:13;;;;;;;14.03;7.23;;;3.70;99.90;;;;;;4882163;29;20235;-87
2022/04/17 01:56:40;;;;;;;13.00;6.77;;;3.70;99.90;;;;;;4883497;29;20171;-87
2022/04/17 01:59:07;;;;;;;13.27;6.93;;;3.60;99.90;;;;;;4883503;29;20210;-88
2022/04/17 02:01:34;;;;;;;11.07;5.87;;;3.60;99.90;;;;;;4884697;29;20179;-88
2022/04/17 02:04:04;;;;;;;12.63;7.27;;;3.60;99.90;;;;;;4900923;29;20183;-88
2022/04/17 02:06:31;;;;;;;12.33;6.93;;;3.40;99.90;;;;;;4900888;29;20497;-87
2022/04/17 02:09:00;;;;;;;17.40;7.93;;;3.30;99.90;;;;;;4901945;29;20171;-87
2022/04/17 02:11:27;;;;;;;14.87;7.90;;;3.20;99.90;;;;;;4901695;29;20211;-87
2022/04/17 02:13:53;;;;;;;13.73;6.73;;;3.20;99.90;;;;;;4900707;29;20179;-88
2022/04/17 02:16:20;;;;;;;17.07;7.63;;;3.20;99.90;;;;;;4900608;29;20191;-88
2022/04/17 02:18:46;;;;;;;14.97;6.80;;;3.00;99.90;;;;;;4901340;29;20207;-88
2022/04/17 02:21:13;;;;;;;12.80;6.83;;;2.80;99.90;;;;;;4901721;29;20610;-88
2022/04/17 02:23:41;;;;;;;13.23;6.50;;;2.80;99.90;;;;;;4900265;29;20714;-87
2022/04/17 02:26:07;;;;;;;10.27;6.40;;;2.80;99.90;;;;;;4901724;29;20210;-88
2022/04/17 02:28:35;;;;;;;12.77;7.43;;;2.90;99.90;;;;;;4900314;29;20187;-88
2022/04/17 02:31:05;;;;;;;13.13;6.70;;;2.90;99.90;;;;;;4900502;29;20239;-87
2022/04/17 02:33:31;;;;;;;16.33;7.93;;;2.90;99.90;;;;;;4900034;29;20194;-88
2022/04/17 02:35:57;;;;;;;15.03;8.13;;;2.90;99.90;;;;;;4900466;29;20184;-88
2022/04/17 02:38:24;;;;;;;14.70;7.60;;;2.90;99.90;;;;;;4901309;29;20683;-87
2022/04/17 02:40:50;;;;;;;12.77;7.30;;;2.90;99.90;;;;;;4900033;29;20180;-88
2022/04/17 02:43:16;;;;;;;14.63;7.27;;;2.90;99.90;;;;;;4900786;29;20178;-87
2022/04/17 02:45:42;;;;;;;14.40;7.03;;;2.80;99.90;;;;;;4900274;29;20183;-87
2022/04/17 02:48:08;;;;;;;13.17;7.40;;;2.90;99.90;;;;;;4901072;29;20175;-88
2022/04/17 02:50:34;;;;;;;12.70;7.37;;;2.80;99.90;;;;;;4900285;29;20190;-88
2022/04/17 02:53:00;;;;;;;14.60;7.33;;;2.80;99.90;;;;;;4899929;29;20530;-87
2022/04/17 02:55:26;;;;;;;15.93;6.87;;;2.80;99.90;;;;;;4901080;29;20233;-87
2022/04/17 02:57:52;;;;;;;11.53;6.70;;;2.90;99.90;;;;;;4900914;29;20214;-89
2022/04/17 03:00:18;;;;;;;13.63;7.07;;;2.90;99.90;;;;;;4901210;29;20171;-87
2022/04/17 03:05:36;;;;;;;14.03;7.63;;;2.90;99.90;;;;;;4901246;29;20174;-88
2022/04/17 03:08:05;;;;;;;15.27;7.23;;;2.80;99.90;;;;;;4899782;29;20190;-88
2022/04/17 03:10:31;;;;;;;15.63;7.70;;;2.70;99.90;;;;;;4900990;29;20530;-88
2022/04/17 03:12:57;;;;;;;14.03;7.50;;;2.60;99.90;;;;;;4899692;29;20208;-88
2022/04/17 03:15:23;;;;;;;11.87;7.23;;;2.60;99.90;;;;;;4900745;29;20190;-88
2022/04/17 03:17:49;;;;;;;12.63;7.43;;;2.60;99.90;;;;;;4900292;29;20329;-88
2022/04/17 03:20:15;;;;;;;12.03;7.03;;;2.60;99.90;;;;;;4900726;29;20178;-88
2022/04/17 03:22:42;;;;;;;13.17;7.20;;;2.70;99.90;;;;;;4899280;29;20189;-88
2022/04/17 03:25:08;;;;;;;11.90;7.30;;;2.60;99.90;;;;;;4899293;29;20197;-87
2022/04/17 03:27:34;;;;;;;11.60;6.83;;;2.60;99.90;;;;;;4899330;29;20282;-88
2022/04/17 03:30:00;;;;;;;15.73;7.70;;;2.50;99.90;;;;;;4900831;29;20278;-88
2022/04/17 03:32:25;;;;;;;11.70;7.03;;;2.50;99.90;;;;;;4899956;29;20177;-88
2022/04/17 03:34:51;;;;;;;13.97;6.67;;;2.50;99.90;;;;;;4900452;29;20190;-89
2022/04/17 03:37:17;;;;;;;13.43;7.37;;;2.60;99.90;;;;;;4899382;29;20214;-89
2022/04/17 03:39:48;;;;;;;10.60;6.17;;;2.60;99.90;;;;;;4899375;29;20217;-89
2022/04/17 03:42:15;;;;;;;16.40;7.13;;;2.60;99.90;;;;;;4900573;29;20172;-88
2022/04/17 03:44:41;;;;;;;11.87;6.70;;;2.60;99.90;;;;;;4899319;29;20197;-89
2022/04/17 03:47:07;;;;;;;14.80;6.97;;;2.50;99.90;;;;;;4899188;29;20234;-88
2022/04/17 03:49:33;;;;;;;13.33;6.63;;;2.30;99.90;;;;;;4899931;29;20623;-88
2022/04/17 03:52:00;;;;;;;9.93;5.97;;;2.30;99.90;;;;;;4899016;29;20176;-89
2022/04/17 03:54:26;;;;;;;11.77;7.13;;;2.20;99.90;;;;;;4898756;29;20287;-89
2022/04/17 03:56:53;;;;;;;9.10;6.27;;;2.10;99.90;;;;;;4899308;29;20194;-89
2022/04/17 03:59:19;;;;;;;11.80;6.63;;;2.10;99.90;;;;;;4900005;29;20210;-89
2022/04/17 04:01:46;;;;;;;12.13;6.57;;;2.10;99.90;;;;;;4898929;29;20191;-90
2022/04/17 04:04:12;;;;;;;13.97;7.13;;;2.10;99.90;;;;;;4898982;29;20187;-88
2022/04/17 04:06:38;;;;;;;10.70;6.20;;;2.10;99.90;;;;;;4900178;29;20208;-90
2022/04/17 04:09:04;;;;;;;11.03;6.30;;;2.20;99.90;;;;;;4899064;29;20560;-90
2022/04/17 04:11:30;;;;;;;11.23;5.90;;;2.30;99.90;;;;;;4900273;29;20175;-90
2022/04/17 04:13:55;;;;;;;16.10;6.57;;;2.30;99.90;;;;;;4898825;29;20214;-90
2022/04/17 04:16:21;;;;;;;12.03;6.70;;;2.20;99.90;;;;;;4898843;29;20554;-89
2022/04/17 04:18:47;;;;;;;12.53;6.00;;;2.10;99.90;;;;;;4898427;29;20216;-90
2022/04/17 04:21:13;;;;;;;10.10;6.13;;;2.10;99.90;;;;;;4900361;29;20594;-90
2022/04/17 04:23:39;;;;;;;9.40;6.10;;;2.30;99.90;;;;;;4898984;29;20187;-91
2022/04/17 04:26:05;;;;;;;13.97;6.40;;;2.30;99.90;;;;;;4899036;29;20626;-91
2022/04/17 04:28:36;;;;;;;13.10;6.10;;;2.40;99.90;;;;;;4898534;29;20191;-91
2022/04/17 04:31:07;;;;;;;11.67;6.37;;;2.20;99.90;;;;;;4898917;29;20266;-90
2022/04/17 04:33:37;;;;;;;13.07;6.83;;;2.10;99.90;;;;;;4898301;29;20195;-87
2022/04/17 04:36:05;;;;;;;14.23;6.83;;;2.10;99.90;;;;;;4898962;29;20230;-90
2022/04/17 04:38:32;;;;;;;14.00;7.27;;;2.00;99.90;;;;;;4899846;29;20290;-90
2022/04/17 04:40:59;;;;;;;10.17;6.40;;;1.90;99.90;;;;;;4898839;29;20255;-90
2022/04/17 04:43:25;;;;;;;12.10;6.67;;;2.00;99.90;;;;;;4899741;29;20210;-90
2022/04/17 04:46:06;;;;;;;14.50;7.10;;;1.90;99.90;;;;;;4899986;29;20235;-88
2022/04/17 04:51:21;;;;;;;15.83;7.00;;;1.90;99.90;;;;;;4900011;29;20175;-89
2022/04/17 04:53:47;;;;;;;14.13;7.73;;;1.90;99.90;;;;;;4898374;29;20190;-88
2022/04/17 04:56:13;;;;;;;13.57;7.50;;;1.80;99.90;;;;;;4899549;29;20573;-90
2022/04/17 04:58:39;;;;;;;13.77;6.70;;;1.70;99.90;;;;;;4898299;29;20249;-90
2022/04/17 05:01:05;;;;;;;11.80;7.27;;;1.80;99.90;;;;;;4898510;29;20176;-89
2022/04/17 05:03:30;;;;;;;14.10;7.47;;;1.80;99.90;;;;;;4898739;29;20282;-89
2022/04/17 05:05:56;;;;;;;11.10;7.03;;;2.00;99.90;;;;;;4902171;29;20219;-89
2022/04/17 05:08:22;;;;;;;12.43;7.83;;;2.20;99.90;;;;;;4903157;29;20184;-89
2022/04/17 05:10:48;;;;;;;14.23;7.57;;;2.30;99.90;;;;;;4903343;29;20173;-88
2022/04/17 05:13:15;;;;;;;13.83;7.43;;;2.30;99.90;;;;;;4902984;29;20618;-90
2022/04/17 05:15:41;;;;;;;18.77;8.70;;;2.30;99.90;;;;;;4903258;29;20175;-88
2022/04/17 05:18:07;;;;;;;14.20;8.57;;;2.20;99.90;;;;;;4902535;29;20211;-89
2022/04/17 05:20:33;;;;;;;16.00;8.47;;;2.30;99.90;;;;;;4901708;29;20191;-87
2022/04/17 05:23:18;;;;;;;14.97;7.47;;;2.30;99.90;;;;;;4902639;29;20644;-87
2022/04/17 05:25:50;;;;;;;14.70;8.47;;;2.40;99.90;;;;;;4902692;29;20650;-87
2022/04/17 05:28:16;;;;;;;18.23;8.83;;;2.40;99.90;;;;;;4901327;29;20179;-84
2022/04/17 05:30:43;;;;;;;20.20;10.30;;;2.50;99.90;;;;;;4902578;29;20190;-87
2022/04/17 05:33:09;;;;;;;19.43;9.43;;;2.50;99.90;;;;;;4902317;29;20194;-86
2022/04/17 05:35:35;;;;;;;18.43;9.40;;;2.60;99.90;;;;;;4902501;29;20186;-87
2022/04/17 05:38:01;;;;;;;19.70;9.47;;;2.70;99.90;;;;;;4902224;29;20652;-86
2022/04/17 05:40:28;;;;;;;18.27;9.03;;;2.60;99.90;;;;;;4901145;29;20274;-88
2022/04/17 05:42:56;;;;;;;15.87;9.10;;;2.60;99.90;;;;;;4902295;29;20171;-86
2022/04/17 05:45:22;;;;;;;19.30;9.73;;;2.70;99.90;;;;;;4901147;29;20214;-86
2022/04/17 05:47:48;;;;;;;15.23;9.00;;;2.70;99.90;;;;;;4900728;29;20187;-88
2022/04/17 05:50:14;;;;;;;23.50;9.83;;;2.80;99.90;;;;;;4901790;29;20190;-88
2022/04/17 05:52:41;;;;;;;16.97;9.00;;;3.00;99.90;;;;;;4902266;29;20253;-89
2022/04/17 05:55:09;;;;;;;23.47;9.67;;;3.20;99.90;;;;;;4901919;29;20259;-89
2022/04/17 05:57:35;;;;;;;17.13;9.07;;;3.30;99.90;;;;;;4902166;29;20193;-90
2022/04/17 06:00:02;;;;;;;17.17;8.93;;;3.50;99.90;;;;;;4902297;29;20666;-89
2022/04/17 06:02:28;;;;;;;17.93;9.43;;;3.60;99.90;;;;;;4901693;29;20183;-88
2022/04/17 06:04:54;;;;;;;17.47;9.00;;;3.70;99.90;;;;;;4901180;29;20190;-88
2022/04/17 06:07:28;;;;;;;18.97;9.07;;;3.80;99.90;;;;;;4901539;29;20179;-84
2022/04/17 06:09:54;;;;;;;15.17;9.53;;;4.00;99.90;;;;;;4900333;29;20183;-85
2022/04/17 06:12:19;;;;;;;17.47;8.53;;;4.10;99.90;;;;;;4901605;29;20544;-85
2022/04/17 06:14:45;;;;;;;20.53;10.70;;;4.20;99.90;;;;;;4900326;29;20180;-83
2022/04/17 06:17:11;;;;;;;15.80;8.27;;;4.30;99.90;;;;;;4899000;29;20195;-84
2022/04/17 06:19:37;;;;;;;16.13;7.70;;;4.40;99.90;;;;;;4899639;29;20681;-84
2022/04/17 06:22:03;;;;;;;11.73;6.93;;;4.50;99.90;;;;;;4899961;29;20180;-83
2022/04/17 06:24:29;;;;;;;17.97;8.07;;;4.70;99.90;;;;;;4901374;29;20516;-84
2022/04/17 06:26:55;;;;;;;12.13;7.37;;;4.60;99.90;;;;;;4900035;29;20179;-84
2022/04/17 06:29:20;;;;;;;12.90;7.27;;;4.80;99.90;;;;;;4901137;29;20195;-85
2022/04/17 06:31:46;;;;;;;13.07;7.20;;;4.80;99.90;;;;;;4899650;29;20247;-84
2022/04/17 06:34:12;;;;;;;14.07;6.70;;;4.80;99.90;;;;;;4900748;29;20208;-85
2022/04/17 06:36:39;;;;;;;13.30;6.67;;;5.00;99.90;;;;;;4899681;29;20191;-85
2022/04/17 06:39:05;;;;;;;13.97;6.40;;;5.10;99.90;;;;;;4899281;29;20221;-83
2022/04/17 06:41:31;;;;;;;19.33;8.13;;;5.20;99.90;;;;;;4899468;29;20193;-84
2022/04/17 06:43:57;;;;;;;11.60;6.83;;;5.30;99.90;;;;;;4899839;29;20278;-84
2022/04/17 06:46:23;;;;;;;13.23;6.87;;;5.40;99.90;;;;;;4900673;29;20658;-84
2022/04/17 06:48:49;;;;;;;13.50;6.87;;;5.40;99.90;;;;;;4900056;29;20183;-84
2022/04/17 06:51:14;;;;;;;12.93;6.33;;;5.50;99.90;;;;;;4899479;29;20183;-85
2022/04/17 06:53:40;;;;;;;11.20;6.60;;;5.60;99.90;;;;;;4899213;29;20274;-85
2022/04/17 06:56:12;;;;;;;12.20;6.10;;;5.70;99.90;;;;;;4899558;29;20706;-84
2022/04/17 06:58:38;;;;;;;11.90;6.03;;;5.90;99.90;;;;;;4898927;29;20226;-86
2022/04/17 07:01:03;;;;;;;12.40;5.93;;;6.00;99.90;;;;;;4900713;29;20176;-85
2022/04/17 07:03:29;;;;;;;10.43;5.77;;;6.30;99.90;;;;;;4898724;29;20595;-85
2022/04/17 07:05:55;;;;;;;12.50;5.53;;;6.40;99.90;;;;;;4899141;29;20185;-86
2022/04/17 07:08:21;;;;;;;10.93;5.07;;;6.60;99.90;;;;;;4900283;29;20223;-86
2022/04/17 07:10:47;;;;;;;7.47;4.10;;;6.70;99.90;;;;;;4900417;29;20183;-87
2022/04/17 07:13:15;;;;;;;7.03;4.10;;;6.90;99.90;;;;;;4900361;29;20541;-86
2022/04/17 07:15:41;;;;;;;8.00;3.57;;;7.10;99.90;;;;;;4898843;29;20525;-85
2022/04/17 07:18:06;;;;;;;8.77;4.07;;;7.30;99.90;;;;;;4899001;29;20318;-86
2022/04/17 07:20:34;;;;;;;7.30;3.70;;;7.40;99.90;;;;;;4899944;29;20262;-84
2022/04/17 07:23:00;;;;;;;10.60;3.10;;;7.60;99.90;;;;;;4898138;29;20179;-86
2022/04/17 07:25:26;;;;;;;4.57;3.00;;;7.70;99.90;;;;;;4899522;29;20271;-84
2022/04/17 07:27:53;;;;;;;6.10;3.47;;;7.90;99.90;;;;;;4898040;29;20187;-84
2022/04/17 07:30:22;;;;;;;5.97;2.70;;;8.00;99.90;;;;;;4898599;29;20642;-87
2022/04/17 07:32:50;;;;;;;4.83;2.70;;;8.20;99.90;;;;;;4899745;29;20188;-87
2022/04/17 07:35:18;;;;;;;6.53;3.00;;;8.30;99.90;;;;;;4898541;29;20186;-86
2022/04/17 07:37:51;;;;;;;6.63;2.70;;;8.40;99.70;;;;;;4899823;29;20607;-88
2022/04/17 07:40:20;;;;;;;6.10;1.60;;;8.50;99.80;;;;;;4898957;29;20191;-88
2022/04/17 07:42:47;;;;;;;2.60;1.03;;;8.70;96.10;;;;;;4898774;29;20164;-89
2022/04/17 07:45:14;;;;;;;2.27;1.20;;;8.90;93.80;;;;;;4897838;29;20533;-85
2022/04/17 07:47:40;;;;;;;1.73;1.43;;;9.00;92.40;;;;;;4898324;29;20214;-88
2022/04/17 07:50:07;;;;;;;1.97;1.20;;;9.10;96.10;;;;;;4897299;29;20185;-87
2022/04/17 07:52:36;;;;;;;1.90;1.30;;;9.30;92.30;;;;;;4898611;29;20167;-89
2022/04/17 07:55:03;;;;;;;3.57;1.50;;;9.30;91.90;;;;;;4897836;29;20338;-86
2022/04/17 07:57:52;;;;;;;2.53;1.53;;;9.50;91.30;;;;;;4896266;29;20231;-87
2022/04/17 08:00:20;;;;;;;2.70;1.27;;;9.60;93.00;;;;;;4899351;29;20179;-88
2022/04/17 08:02:53;;;;;;;2.47;1.40;;;9.80;91.00;;;;;;4887343;29;20252;-90
2022/04/17 08:05:22;;;;;;;1.80;1.40;;;9.80;90.40;;;;;;4894963;29;20172;-88
2022/04/17 08:07:51;;;;;;;2.13;1.33;;;9.80;88.70;;;;;;4898426;29;20194;-89
2022/04/17 08:10:17;;;;;;;2.43;1.20;;;9.90;89.60;;;;;;4899824;29;20183;-85
2022/04/17 08:12:43;;;;;;;2.40;1.10;;;10.00;91.20;;;;;;4898444;29;20182;-87
2022/04/17 08:15:09;;;;;;;1.20;1.00;;;10.10;90.60;;;;;;4897513;29;20634;-86
2022/04/17 08:17:35;;;;;;;1.50;1.10;;;10.20;88.30;;;;;;4896907;29;20183;-86
2022/04/17 08:20:01;;;;;;;1.73;1.20;;;10.30;91.00;;;;;;4899461;29;20195;-87
2022/04/17 08:22:28;;;;;;;3.03;1.27;;;10.40;90.80;;;;;;4906792;29;20239;-88
2022/04/17 08:24:53;;;;;;;4.27;1.37;;;10.60;92.50;;;;;;4902772;29;20642;-87
2022/04/17 08:27:19;;;;;;;2.83;1.60;;;10.60;90.20;;;;;;4899053;29;20189;-85
2022/04/17 08:29:45;;;;;;;3.35;1.50;;;10.70;91.90;;;;;;4898128;29;20183;-87
2022/04/17 08:32:10;;;;;;;1.90;1.27;;;10.70;90.00;;;;;;4899053;29;20199;-87
2022/04/17 08:34:36;;;;;;;2.87;1.17;;;10.80;90.20;;;;;;4902674;29;20542;-87
2022/04/17 08:37:02;;;;;;;2.22;1.20;;;10.80;88.00;;;;;;4897583;29;20186;-86
2022/04/17 08:39:27;;;;;;;2.97;1.47;;;10.80;87.50;;;;;;4899192;29;20211;-89
2022/04/17 08:41:58;;;;;;;1.52;1.02;;;10.90;90.50;;;;;;4901253;29;20183;-87
2022/04/17 08:44:24;;;;;;;2.23;1.20;;;11.00;88.00;;;;;;4890496;29;20615;-87
2022/04/17 08:46:50;;;;;;;1.50;1.10;;;11.10;90.00;;;;;;4901630;29;20239;-86
2022/04/17 08:49:17;;;;;;;2.90;1.50;;;11.20;87.20;;;;;;4891425;29;20202;-91
2022/04/17 08:51:48;;;;;;;4.60;1.13;;;11.40;90.60;;;;;;4901006;29;20183;-88
2022/04/17 08:54:15;;;;;;;1.45;1.27;;;11.50;85.90;;;;;;4901543;29;20234;-89
2022/04/17 08:56:41;;;;;;;1.58;1.00;;;11.50;90.30;;;;;;4901246;29;20187;-87
2022/04/17 08:59:07;;;;;;;4.95;1.23;;;11.60;87.90;;;;;;4901868;29;20313;-86
2022/04/17 09:01:38;;;;;;;1.70;0.88;;;11.70;86.30;;;;;;4901692;29;20268;-90
2022/04/17 09:04:04;;;;;;;1.25;0.90;;;11.70;82.60;;;;;;4894657;29;20658;-87
2022/04/17 09:06:30;;;;;;;1.23;0.90;;;11.60;81.60;;;;;;4901403;29;20187;-87
2022/04/17 09:09:06;;;;;;;3.63;1.00;;;11.60;81.70;;;;;;4892726;29;20193;-84
2022/04/17 09:11:34;;;;;;;1.58;1.00;;;11.70;82.80;;;;;;4899371;29;20183;-87
2022/04/17 09:14:01;;;;;;;2.13;1.00;;;11.90;81.00;;;;;;4899095;29;20238;-86
2022/04/17 09:16:29;;;;;;;2.47;1.10;;;11.90;80.90;;;;;;4891004;29;20207;-87
2022/04/17 09:18:57;;;;;;;1.48;1.10;;;12.00;80.80;;;;;;4883613;29;20219;-89
2022/04/17 09:21:32;;;;;;;0.88;0.70;;;12.10;80.50;;;;;;4881528;29;20620;-89
2022/04/17 09:24:21;;;;;;;1.50;0.98;;;12.00;81.00;;;;;;4890523;29;20187;-86
2022/04/17 09:26:55;;;;;;;1.80;1.00;;;12.20;79.30;;;;;;4900209;29;20194;-86
2022/04/17 09:29:26;;;;;;;1.15;0.90;;;12.30;79.20;;;;;;4901290;29;20235;-87
2022/04/17 09:31:57;;;;;;;1.30;0.75;;;12.30;77.80;;;;;;4900820;29;20191;-86
2022/04/17 09:34:22;;;;;;;0.90;0.75;;;12.30;78.50;;;;;;4901281;29;20172;-85
2022/04/17 09:37:00;;;;;;;2.20;1.13;;;12.40;77.30;;;;;;4900173;29;20198;-86
2022/04/17 09:39:35;;;;;;;3.03;0.93;;;12.50;77.60;;;;;;4897038;29;20207;-87
2022/04/17 09:42:03;;;;;;;2.70;1.10;;;12.50;76.20;;;;;;4898353;29;20282;-84
2022/04/17 09:44:46;;;;;;;2.05;0.93;;;12.50;76.40;;;;;;4887244;29;20171;-85
2022/04/17 09:47:26;;;;;;;1.70;0.98;;;12.50;75.10;;;;;;4901107;29;20554;-87
2022/04/17 09:50:01;;;;;;;2.38;1.10;;;12.70;78.30;;;;;;4898357;29;20179;-85
2022/04/17 09:52:32;;;;;;;1.58;1.08;;;12.70;75.90;;;;;;4900588;29;20579;-90
2022/04/17 09:55:03;;;;;;;2.55;1.45;;;12.90;78.80;;;;;;4905889;29;20231;-87
2022/04/17 09:57:40;;;;;;;2.22;1.40;;;13.00;79.40;;;;;;4901549;29;20226;-85
2022/04/17 10:00:16;;;;;;;2.83;1.45;;;13.00;78.00;;;;;;4904576;29;20190;-88
2022/04/17 10:02:46;;;;;;;6.13;1.30;;;13.00;76.20;;;;;;4897779;29;20195;-89
2022/04/17 10:05:14;;;;;;;1.75;1.20;;;13.20;77.60;;;;;;4903474;29;20171;-86
2022/04/17 10:07:48;;;;;;;3.60;1.33;;;13.30;76.70;;;;;;4901706;29;20194;-87
2022/04/17 10:10:15;;;;;;;2.67;1.40;;;13.40;78.70;;;;;;4917927;29;20179;-86
2022/04/17 10:12:43;;;;;;;2.60;1.38;;;13.50;80.40;;;;;;4903028;29;20198;-86
2022/04/17 10:15:11;;;;;;;2.90;1.50;;;13.50;75.20;;;;;;4908679;29;20208;-87
2022/04/17 10:17:44;;;;;;;2.55;1.20;;;13.50;78.00;;;;;;4888992;29;20235;-87
2022/04/17 10:20:12;;;;;;;1.83;1.40;;;13.50;75.40;;;;;;4900920;29;20266;-86
2022/04/17 10:22:42;;;;;;;3.80;1.70;;;13.60;75.00;;;;;;4899863;29;20210;-86
2022/04/17 10:25:10;;;;;;;2.35;1.30;;;13.50;74.80;;;;;;4900400;29;20262;-86
2022/04/17 10:27:36;;;;;;;2.33;1.30;;;13.60;75.60;;;;;;4897521;29;20176;-88
2022/04/17 10:30:12;;;;;;;2.65;1.55;;;13.80;75.10;;;;;;4907481;29;20661;-88
2022/04/17 10:33:41;;;;;;;2.78;1.50;;;14.00;79.70;;;;;;4899480;29;20194;-87
2022/04/17 10:36:33;;;;;;;1.85;1.27;;;14.10;74.80;;;;;;4858901;29;20180;-86
2022/04/17 10:39:13;;;;;;;2.78;1.40;;;14.00;84.20;;;;;;4835942;29;20300;-88
2022/04/17 10:41:42;;;;;;;2.05;1.17;;;14.00;78.90;;;;;;4879888;29;20786;-86
2022/04/17 10:44:12;;;;;;;1.90;1.35;;;14.10;77.20;;;;;;4891371;29;20183;-87
2022/04/17 10:46:49;;;;;;;2.03;1.40;;;14.20;79.40;;;;;;4900545;29;20634;-87
2022/04/17 10:49:29;;;;;;;5.85;1.77;;;14.40;82.50;;;;;;4905730;29;20190;-88
2022/04/17 10:51:57;;;;;;;2.83;1.50;;;14.60;81.10;;;;;;4899990;29;20167;-88
2022/04/17 10:54:24;;;;;;;3.20;2.05;;;14.70;77.40;;;;;;4898823;29;20238;-87
2022/04/17 10:56:55;;;;;;;7.03;1.60;;;14.50;82.50;;;;;;4900170;29;20192;-86
2022/04/17 10:59:32;;;;;;;1.90;1.40;;;14.30;75.30;;;;;;4909719;29;20233;-86
2022/04/17 11:02:08;;;;;;;2.45;1.38;;;14.00;76.70;;;;;;4915539;29;20614;-85
2022/04/17 11:04:33;;;;;;;1.80;1.40;;;13.80;80.20;;;;;;4908612;29;20183;-86
2022/04/17 11:07:06;;;;;;;2.00;1.40;;;13.70;77.80;;;;;;4899773;29;20194;-86
2022/04/17 11:09:41;;;;;;;2.28;1.40;;;13.70;77.80;;;;;;4903603;29;20190;-87
2022/04/17 11:12:10;;;;;;;2.90;1.38;;;13.80;80.20;;;;;;4881349;29;20183;-86
2022/04/17 11:14:38;;;;;;;2.47;1.40;;;14.00;80.50;;;;;;4887113;29;20556;-89
2022/04/17 11:17:08;;;;;;;2.55;1.65;;;14.30;78.10;;;;;;4881047;29;20195;-87
2022/04/17 11:19:40;;;;;;;3.00;1.63;;;14.50;75.80;;;;;;4880400;29;20216;-87
2022/04/17 11:22:08;;;;;;;2.42;1.60;;;14.70;78.30;;;;;;4877474;29;20169;-85
2022/04/17 11:24:55;;;;;;;2.22;1.50;;;14.80;75.60;;;;;;4896087;29;20183;-87
2022/04/17 11:27:38;;;;;;;2.70;1.60;;;14.80;74.60;;;;;;4895946;29;20279;-87
2022/04/17 11:30:05;;;;;;;2.20;1.60;;;14.70;73.90;;;;;;4897365;29;20195;-88
2022/04/17 11:32:30;;;;;;;2.90;1.70;;;14.70;76.40;;;;;;4897112;29;20203;-85
2022/04/17 11:35:00;;;;;;;2.00;1.60;;;14.60;75.80;;;;;;4896138;29;20203;-85
2022/04/17 11:37:27;;;;;;;2.08;1.60;;;14.60;75.00;;;;;;4899567;29;20183;-87
2022/04/17 11:39:55;;;;;;;2.97;1.60;;;14.80;78.20;;;;;;4898714;29;20211;-86
2022/04/17 11:42:21;;;;;;;3.30;2.03;;;14.90;75.80;;;;;;4899588;29;20183;-85
2022/04/17 11:44:49;;;;;;;2.58;1.63;;;15.10;75.90;;;;;;4898355;29;20619;-88
2022/04/17 11:47:16;;;;;;;3.03;1.60;;;15.10;74.70;;;;;;4899526;29;20171;-87
2022/04/17 11:49:43;;;;;;;3.92;1.70;;;15.00;75.50;;;;;;4912502;29;20187;-86
2022/04/17 11:52:16;;;;;;;2.78;2.17;;;15.10;76.50;;;;;;4898748;29;20221;-86
2022/04/17 11:54:43;;;;;;;3.20;1.98;;;15.10;73.70;;;;;;4899138;29;20258;-87
2022/04/17 11:57:10;;;;;;;2.80;2.05;;;15.20;74.60;;;;;;4899309;29;20239;-86
2022/04/17 11:59:46;;;;;;;2.40;1.52;;;15.40;75.00;;;;;;4896769;29;20597;-88
2022/04/17 12:02:36;;;;;;;2.67;2.03;;;15.40;73.80;;;;;;4898275;29;20246;-85
2022/04/17 12:05:10;;;;;;;3.47;1.95;;;15.40;72.00;;;;;;4882682;29;20176;-87
2022/04/17 12:07:36;;;;;;;3.22;2.05;;;15.60;75.30;;;;;;4899595;29;20174;-87
2022/04/17 12:10:13;;;;;;;3.47;1.60;;;15.50;71.30;;;;;;4898604;29;20239;-86
2022/04/17 12:12:41;;;;;;;3.58;1.67;;;15.50;72.70;;;;;;4880425;29;20203;-88
2022/04/17 12:15:11;;;;;;;3.55;1.73;;;15.40;72.60;;;;;;4891583;29;20179;-88
2022/04/17 12:17:37;;;;;;;2.67;1.90;;;15.40;71.80;;;;;;4883285;29;20196;-88
2022/04/17 12:20:13;;;;;;;3.45;1.60;;;15.50;71.00;;;;;;4898451;29;20310;-87
2022/04/17 12:22:40;;;;;;;3.17;1.70;;;15.60;72.50;;;;;;4898128;29;20178;-87
2022/04/17 12:25:20;;;;;;;3.30;1.92;;;15.80;72.50;;;;;;4897648;29;20277;-86
2022/04/17 12:27:47;;;;;;;4.57;1.90;;;15.90;73.80;;;;;;4896940;29;20266;-86
2022/04/17 12:30:25;;;;;;;3.03;1.83;;;15.90;69.40;;;;;;4895688;29;20187;-87
2022/04/17 12:32:55;;;;;;;3.38;1.95;;;15.90;66.80;;;;;;4884684;29;20191;-87
2022/04/17 12:35:25;;;;;;;3.05;1.70;;;15.80;67.00;;;;;;4892457;29;20191;-87
2022/04/17 12:38:09;;;;;;;2.63;1.90;;;15.80;69.40;;;;;;4895383;29;20813;-86
2022/04/17 12:40:43;;;;;;;2.85;1.50;;;16.00;72.40;;;;;;4893897;29;20191;-89
2022/04/17 12:43:17;;;;;;;1.88;1.45;;;16.10;67.30;;;;;;4890720;29;20332;-89
2022/04/17 12:46:04;;;;;;;2.95;1.77;;;16.10;65.60;;;;;;4893760;29;20527;-90
2022/04/17 12:48:35;;;;;;;3.53;1.98;;;16.00;69.90;;;;;;4904697;29;20614;-87
2022/04/17 12:51:06;;;;;;;3.05;1.90;;;16.00;69.20;;;;;;4878970;29;20239;-88
2022/04/17 12:53:38;;;;;;;2.58;1.98;;;16.00;69.20;;;;;;4897414;29;20183;-86
2022/04/17 12:56:04;;;;;;;2.60;1.80;;;15.90;66.50;;;;;;4898475;29;20273;-86
2022/04/17 12:58:49;;;;;;;2.63;1.90;;;15.90;67.80;;;;;;4896539;29;20710;-88
2022/04/17 13:01:22;;;;;;;2.17;1.60;;;16.10;69.00;;;;;;4898260;29;20235;-89
2022/04/17 13:03:49;;;;;;;2.78;1.70;;;16.10;68.50;;;;;;4879793;29;20176;-86